createdAt,value
2022-08-12T00:01:11.062Z,97350.06
2022-08-12T00:05:28.202Z,97341.22
2022-08-12T00:09:44.135Z,97335.78
2022-08-12T00:14:00.032Z,97339.50
2022-08-12T00:18:15.970Z,97335.69
2022-08-12T00:22:33.077Z,97319.28
2022-08-12T00:26:49.494Z,97325.72
2022-08-12T00:31:05.627Z,97333.25
2022-08-12T00:35:24.377Z,97344.19
2022-08-12T00:39:42.147Z,97346.22
2022-08-12T00:43:42.963Z,97339.28
2022-08-12T00:47:41.122Z,97345.13
2022-08-12T00:51:59.073Z,97340.00
2022-08-12T00:55:58.667Z,97349.25
2022-08-12T01:00:11.443Z,97298.00
2022-08-12T01:04:29.844Z,97318.47
2022-08-12T01:08:48.044Z,97332.28
2022-08-12T01:12:46.186Z,97322.09
2022-08-12T01:16:43.870Z,97333.78
2022-08-12T01:20:52.480Z,97346.56
2022-08-12T01:25:11.863Z,97310.56
2022-08-12T01:29:15.626Z,97332.22
2022-08-12T01:33:21.911Z,97332.91
2022-08-12T01:37:24.574Z,97304.28
2022-08-12T01:41:26.073Z,97320.06
2022-08-12T01:45:26.675Z,97324.59
2022-08-12T01:49:48.678Z,97321.84
2022-08-12T01:54:14.872Z,97313.13
2022-08-12T01:58:32.013Z,97314.13
2022-08-12T02:03:03.953Z,97314.16
2022-08-12T02:07:37.845Z,97325.63
2022-08-12T02:12:06.111Z,97314.13
2022-08-12T02:16:46.732Z,97322.19
2022-08-12T02:21:07.414Z,97308.41
2022-08-12T02:25:13.562Z,97317.28
2022-08-12T02:29:13.418Z,97317.78
2022-08-12T02:33:12.136Z,97317.94
2022-08-12T02:37:14.005Z,97313.81
2022-08-12T02:41:17.134Z,97309.94
2022-08-12T02:45:26.019Z,97294.59
2022-08-12T02:49:35.065Z,97303.47
2022-08-12T02:53:34.587Z,97290.22
2022-08-12T02:57:32.954Z,97271.31
2022-08-12T03:01:36.290Z,97296.84
2022-08-12T03:05:52.483Z,97286.66
2022-08-12T03:10:03.711Z,97280.31
2022-08-12T03:14:03.875Z,97266.81
2022-08-12T03:18:24.911Z,97274.88
2022-08-12T03:22:27.097Z,97290.22
2022-08-12T03:26:28.008Z,97291.19
2022-08-12T03:30:32.720Z,97284.50
2022-08-12T03:34:34.013Z,97267.59
2022-08-12T03:38:37.366Z,97271.63
2022-08-12T03:42:42.929Z,97278.25
2022-08-12T03:47:04.057Z,97281.16
2022-08-12T03:51:21.206Z,97290.25
2022-08-12T03:55:36.530Z,97299.53
2022-08-12T03:59:51.934Z,97299.53
2022-08-12T04:03:53.343Z,97308.09
2022-08-12T04:07:58.222Z,97278.53
2022-08-12T04:12:14.422Z,97292.59
2022-08-12T04:16:13.682Z,97303.25
2022-08-12T04:20:14.432Z,97302.91
2022-08-12T04:24:12.551Z,97296.09
2022-08-12T04:28:13.539Z,97311.16
2022-08-12T04:32:11.641Z,97313.91
2022-08-12T04:36:09.516Z,97280.34
2022-08-12T04:40:11.283Z,97288.28
2022-08-12T04:44:10.416Z,97259.78
2022-08-12T04:48:07.760Z,97292.00
2022-08-12T04:52:05.937Z,97294.25
2022-08-12T04:56:03.057Z,97285.59
2022-08-12T05:00:00.154Z,97277.25
2022-08-12T05:03:58.929Z,97311.19
2022-08-12T05:07:55.976Z,97322.34
2022-08-12T05:11:54.076Z,97328.69
2022-08-12T05:16:05.070Z,97323.44
2022-08-12T05:20:03.113Z,97298.31
2022-08-12T05:24:01.584Z,97318.34
2022-08-12T05:28:00.642Z,97318.47
2022-08-12T05:31:58.198Z,97283.81
2022-08-12T05:35:55.289Z,97314.16
2022-08-12T05:39:52.409Z,97334.91
2022-08-12T05:43:56.748Z,97324.78
2022-08-12T05:47:54.339Z,97328.53
2022-08-12T05:51:51.826Z,97324.00
2022-08-12T05:55:52.873Z,97314.69
2022-08-12T05:59:49.864Z,97343.56
2022-08-12T06:03:47.032Z,97329.69
2022-08-12T06:08:01.955Z,97316.88
2022-08-12T06:12:05.417Z,97331.47
2022-08-12T06:16:03.902Z,97338.56
2022-08-12T06:20:26.831Z,97348.59
2022-08-12T06:24:24.327Z,97320.75
2022-08-12T06:28:22.730Z,97346.00
2022-08-12T06:32:19.823Z,97324.03
2022-08-12T06:36:30.091Z,97349.28
2022-08-12T06:40:50.423Z,97341.16
2022-08-12T06:44:47.463Z,97330.34
2022-08-12T06:48:44.518Z,97340.22
2022-08-12T06:52:43.679Z,97325.63
2022-08-12T06:57:02.885Z,97289.63
2022-08-12T07:01:00.260Z,97330.22
2022-08-12T07:04:57.564Z,97322.13
2022-08-12T07:08:54.543Z,97312.66
2022-08-12T07:12:54.964Z,97298.03
2022-08-12T07:16:56.833Z,97312.16
2022-08-12T07:20:54.146Z,97293.63
2022-08-12T07:25:11.272Z,97302.41
2022-08-12T07:29:09.961Z,97314.56
2022-08-12T07:33:09.749Z,97311.13
2022-08-12T07:37:06.756Z,97325.16
2022-08-12T07:41:14.511Z,97298.66
2022-08-12T07:45:13.914Z,97293.38
2022-08-12T07:49:19.705Z,97303.44
2022-08-12T07:53:16.913Z,97291.16
2022-08-12T07:57:15.597Z,97294.81
2022-08-12T08:01:17.644Z,97317.50
2022-08-12T08:05:15.591Z,97273.00
2022-08-12T08:09:15.875Z,97286.19
2022-08-12T08:13:13.755Z,97298.41
2022-08-12T08:17:11.610Z,97290.97
2022-08-12T08:21:11.212Z,97272.50
2022-08-12T08:25:34.744Z,97278.28
2022-08-12T08:29:26.165Z,97291.94
2022-08-12T08:34:01.593Z,97270.25
2022-08-12T08:37:46.304Z,97270.25
2022-08-12T08:42:19.374Z,97279.31
2022-08-12T08:46:17.046Z,97279.38
2022-08-12T08:50:15.339Z,97282.00
2022-08-12T08:54:13.310Z,97291.44
2022-08-12T08:58:11.672Z,97285.19
2022-08-12T09:02:09.250Z,97272.78
2022-08-12T09:06:07.267Z,97296.97
2022-08-12T09:10:09.174Z,97291.91
2022-08-12T09:14:29.260Z,97297.94
2022-08-12T09:18:33.374Z,97297.06
2022-08-12T09:22:30.904Z,97295.47
2022-08-12T09:26:33.806Z,97294.25
2022-08-12T09:30:41.048Z,97300.25
2022-08-12T09:34:42.550Z,97301.81
2022-08-12T09:38:58.490Z,97293.56
2022-08-12T09:43:18.675Z,97301.09
2022-08-12T09:47:16.521Z,97301.22
2022-08-12T09:51:21.659Z,97299.81
2022-08-12T09:56:05.995Z,97288.38
2022-08-12T10:00:17.240Z,97282.53
2022-08-12T10:04:04.151Z,97286.84
2022-08-12T10:08:04.974Z,97279.59
2022-08-12T10:12:32.750Z,97278.94
2022-08-12T10:16:38.623Z,97264.13
2022-08-12T10:20:37.480Z,97267.47
2022-08-12T10:24:34.613Z,97243.81
2022-08-12T10:28:56.236Z,97253.81
2022-08-12T10:33:00.239Z,97240.38
2022-08-12T10:37:22.918Z,97252.94
2022-08-12T10:41:57.347Z,97241.75
2022-08-12T10:45:58.292Z,97228.28
2022-08-12T10:50:05.641Z,97222.50
2022-08-12T10:54:14.351Z,97229.53
2022-08-12T10:58:14.422Z,97223.59
2022-08-12T11:04:32.099Z,97200.50
2022-08-12T11:07:09.657Z,97206.09
2022-08-12T11:11:13.217Z,97214.19
2022-08-12T11:15:18.620Z,97205.59
2022-08-12T11:19:18.090Z,97211.81
2022-08-12T11:23:25.405Z,97205.47
2022-08-12T11:27:34.239Z,97172.44
2022-08-12T11:31:56.287Z,97177.22
2022-08-12T11:35:53.128Z,97119.19
2022-08-12T11:44:36.350Z,97182.34
2022-08-12T11:48:27.077Z,97164.78
2022-08-12T11:52:55.523Z,97177.97
2022-08-12T11:56:42.894Z,97184.13
2022-08-12T12:05:06.972Z,97170.09
2022-08-12T12:09:04.073Z,97152.78
2022-08-12T12:13:05.173Z,97165.84
2022-08-12T12:17:19.917Z,97147.16
2022-08-12T12:21:30.019Z,97140.66
2022-08-12T12:26:07.063Z,97145.13
2022-08-12T12:30:18.138Z,97135.72
2022-08-12T12:34:30.238Z,97148.31
2022-08-12T12:38:28.102Z,97134.13
2022-08-12T12:42:42.843Z,97127.19
2022-08-12T12:46:42.095Z,97137.34
2022-08-12T12:51:13.978Z,97120.03
2022-08-12T12:55:36.009Z,97131.84
2022-08-12T12:59:35.000Z,97120.53
2022-08-12T13:03:54.244Z,97116.06
2022-08-12T13:08:00.640Z,97127.03
2022-08-12T13:12:01.082Z,97117.97
2022-08-12T13:16:01.761Z,97124.94
2022-08-12T13:20:06.614Z,97121.06
2022-08-12T13:24:10.144Z,97112.91
2022-08-12T13:28:09.630Z,97099.31
2022-08-12T13:32:19.576Z,97095.69
2022-08-12T13:36:24.270Z,97083.72
2022-08-12T13:40:33.964Z,97113.53
2022-08-12T13:44:31.354Z,97103.47
2022-08-12T13:48:30.574Z,97119.25
2022-08-12T13:52:27.593Z,97107.31
2022-08-12T13:56:31.493Z,97114.81
2022-08-12T14:00:38.981Z,97117.47
2022-08-12T14:04:37.205Z,97111.13
2022-08-12T14:08:34.795Z,97113.38
2022-08-12T14:12:40.216Z,97103.78
2022-08-12T14:16:52.073Z,97115.66
2022-08-12T14:20:58.460Z,97103.28
2022-08-12T14:24:58.379Z,97075.91
2022-08-12T14:28:57.735Z,97094.28
2022-08-12T14:33:03.242Z,97069.50
2022-08-12T14:37:02.430Z,97071.59
2022-08-12T14:41:07.497Z,97097.00
2022-08-12T14:45:08.041Z,97069.03
2022-08-12T14:49:27.511Z,97062.50
2022-08-12T14:57:57.939Z,97079.41
2022-08-12T15:01:55.557Z,97076.84
2022-08-12T15:06:05.564Z,97033.00
2022-08-12T15:10:04.332Z,97064.97
2022-08-12T15:14:01.722Z,97073.31
2022-08-12T15:18:06.965Z,97085.03
2022-08-12T15:22:35.633Z,97076.84
2022-08-12T15:26:28.310Z,97077.72
2022-08-12T15:30:30.281Z,97065.09
2022-08-12T15:34:30.889Z,97046.63
2022-08-12T15:38:28.224Z,97054.50
2022-08-12T15:42:26.485Z,97063.03
2022-08-12T15:46:27.647Z,97027.97
2022-08-12T15:50:29.657Z,97070.81
2022-08-12T15:54:34.057Z,97057.72
2022-08-12T15:58:33.724Z,97075.75
2022-08-12T16:02:40.771Z,97055.75
2022-08-12T16:07:05.625Z,97075.06
2022-08-12T16:10:57.948Z,97084.41
2022-08-12T16:14:57.497Z,97096.31
2022-08-12T16:19:00.820Z,97093.38
2022-08-12T16:23:26.322Z,97081.41
2022-08-12T16:27:25.662Z,97075.28
2022-08-12T16:31:24.097Z,97066.91
2022-08-12T16:35:21.360Z,97062.69
2022-08-12T16:39:27.818Z,97069.97
2022-08-12T16:43:30.374Z,97073.31
2022-08-12T16:47:58.214Z,97088.06
2022-08-12T16:51:50.285Z,97094.09
2022-08-12T16:55:50.739Z,97077.88
2022-08-12T16:59:54.146Z,97089.53
2022-08-12T17:04:09.085Z,97078.75
2022-08-12T17:08:09.690Z,97069.50
2022-08-12T17:12:07.998Z,97084.44
2022-08-12T17:16:10.701Z,97085.16
2022-08-12T17:20:34.674Z,97087.50
2022-08-12T17:24:44.078Z,97087.44
2022-08-12T17:28:53.776Z,97105.34
2022-08-12T17:32:53.473Z,97096.69
2022-08-12T17:36:51.650Z,97106.97
2022-08-12T17:40:49.114Z,97106.22
2022-08-12T17:44:49.119Z,97102.53
2022-08-12T17:48:55.051Z,97108.16
2022-08-12T17:53:00.468Z,97099.81
2022-08-12T17:57:01.337Z,97103.88
2022-08-12T18:01:02.270Z,97107.19
2022-08-12T18:05:09.361Z,97115.31
2022-08-12T18:09:08.574Z,97110.63
2022-08-12T18:13:06.977Z,97113.50
2022-08-12T18:17:08.253Z,97118.56
2022-08-12T18:21:09.793Z,97087.22
2022-08-12T18:25:18.661Z,97118.06
2022-08-12T18:29:42.252Z,97129.56
2022-08-12T18:33:45.670Z,97130.06
2022-08-12T18:37:43.210Z,97134.72
2022-08-12T18:41:43.386Z,97130.69
2022-08-12T18:45:57.034Z,97130.28
2022-08-12T18:49:57.380Z,97128.16
2022-08-12T18:54:05.293Z,97129.69
2022-08-12T18:58:10.107Z,97140.81
2022-08-12T19:02:19.499Z,97126.13
2022-08-12T19:06:19.876Z,97125.13
2022-08-12T19:10:23.034Z,97141.13
2022-08-12T19:14:32.814Z,97144.06
2022-08-12T19:18:32.357Z,97149.78
2022-08-12T19:22:35.277Z,97163.56
2022-08-12T19:26:35.180Z,97166.84
2022-08-12T19:30:54.499Z,97150.25
2022-08-12T19:36:06.632Z,97158.94
2022-08-12T19:39:23.143Z,97149.41
2022-08-12T19:43:26.837Z,97150.78
2022-08-12T19:47:46.068Z,97155.91
2022-08-12T19:51:49.595Z,97152.38
2022-08-12T19:55:52.856Z,97168.94
2022-08-12T20:00:04.099Z,97164.19
2022-08-12T20:04:03.275Z,97173.44
2022-08-12T20:08:01.079Z,97175.94
2022-08-12T20:12:11.962Z,97171.44
2022-08-12T20:16:45.492Z,97108.00
2022-08-12T20:20:30.569Z,97177.97
2022-08-12T20:24:37.592Z,97127.13
2022-08-12T20:28:34.860Z,97167.28
2022-08-12T20:32:37.606Z,97174.81
2022-08-12T20:36:45.395Z,97169.50
2022-08-12T20:40:47.807Z,97163.63
2022-08-12T20:44:45.336Z,97157.25
2022-08-12T20:48:44.359Z,97164.00
2022-08-12T20:52:45.306Z,97163.75
2022-08-12T20:56:43.078Z,97158.75
2022-08-12T21:00:43.623Z,97144.03
2022-08-12T21:04:59.239Z,97143.00
2022-08-12T21:08:59.228Z,97167.38
2022-08-12T21:12:57.341Z,97161.19
2022-08-12T21:16:55.184Z,97138.47
2022-08-12T21:20:54.565Z,97118.13
2022-08-12T21:24:53.090Z,97145.44
2022-08-12T21:28:56.780Z,97163.94
2022-08-12T21:32:56.571Z,97148.94
2022-08-12T21:36:53.953Z,97144.16
2022-08-12T21:40:53.851Z,97176.28
2022-08-12T21:45:46.962Z,97146.28
2022-08-12T21:49:16.460Z,97179.50
2022-08-12T21:54:07.889Z,97158.09
2022-08-12T21:57:54.640Z,97157.22
2022-08-12T22:01:59.586Z,97158.31
2022-08-12T22:06:20.289Z,97180.00
2022-08-12T22:10:28.541Z,97177.06
2022-08-12T22:14:28.995Z,97183.75
2022-08-12T22:18:27.473Z,97179.16
2022-08-12T22:22:25.389Z,97175.13
2022-08-12T22:26:37.593Z,97167.13
2022-08-12T22:30:53.521Z,97160.09
2022-08-12T22:35:10.445Z,97148.56
2022-08-12T22:39:19.368Z,97184.97
2022-08-12T22:43:36.382Z,97169.13
2022-08-12T22:47:55.861Z,97177.69
2022-08-12T22:52:00.256Z,97158.31
2022-08-12T22:56:06.697Z,97186.75
2022-08-12T23:00:09.063Z,97169.03
2022-08-12T23:04:28.530Z,97162.56
2022-08-12T23:08:31.864Z,97175.41
2022-08-12T23:12:49.099Z,97151.25
2022-08-12T23:16:47.249Z,97179.09
2022-08-12T23:20:45.071Z,97161.94
2022-08-12T23:24:53.669Z,97144.78
2022-08-12T23:29:26.045Z,97151.72
2022-08-12T23:34:00.682Z,97162.16
2022-08-12T23:37:47.577Z,97139.38
2022-08-12T23:41:56.307Z,97145.53
2022-08-12T23:46:19.497Z,97142.47
2022-08-12T23:50:17.174Z,97148.91
2022-08-12T23:54:38.773Z,97152.63
2022-08-12T23:58:37.022Z,97154.13
